Terminal Aerodrome Forecast
Issued by NWS

Current Version | Previous Version | Text Only | Print | Product List | Glossary On
Versions: 1 2 3 4 5 6 7 8 9 10 11 12 13 14 15 16 17
000
FTUS45 KFGZ 262320
TAFSEZ
TAF
KSEZ 262320Z 2700/2724 20009KT P6SM FEW100 SCT250
     FM270400 04009KT P6SM SCT200
     FM271500 VRB05KT P6SM BKN200
     FM271900 24010KT P6SM FEW120 BKN200=

USA.gov is the U.S. government's official web portal to all federal, state and local government web resources and services.